createdAt,value
2022-09-22T00:01:23.741Z,7.85
2022-09-22T00:03:54.174Z,7.78
2022-09-22T00:06:23.805Z,7.20
2022-09-22T00:08:53.567Z,4.45
2022-09-22T00:11:23.501Z,6.85
2022-09-22T00:13:55.989Z,8.38
2022-09-22T00:16:26.861Z,7.82
2022-09-22T00:18:54.990Z,6.22
2022-09-22T00:21:24.538Z,6.15
2022-09-22T00:23:53.451Z,5.75
2022-09-22T00:26:23.616Z,7.35
2022-09-22T00:28:53.445Z,5.97
2022-09-22T00:31:24.581Z,4.60
2022-09-22T00:33:53.884Z,4.68
2022-09-22T00:36:25.658Z,9.25
2022-09-22T00:38:55.499Z,6.05
2022-09-22T00:41:25.443Z,4.00
2022-09-22T00:44:43.134Z,4.97
2022-09-22T00:47:24.778Z,6.68
2022-09-22T00:49:57.051Z,5.57
2022-09-22T00:52:28.517Z,6.15
2022-09-22T00:54:59.981Z,4.32
2022-09-22T00:57:32.674Z,9.63
2022-09-22T01:00:02.754Z,5.10
2022-09-22T01:02:32.561Z,6.13
2022-09-22T01:05:00.512Z,5.90
2022-09-22T01:07:31.334Z,6.85
2022-09-22T01:09:59.819Z,6.43
2022-09-22T01:12:30.707Z,8.05
2022-09-22T01:15:21.768Z,7.65
2022-09-22T01:18:05.151Z,5.95
2022-09-22T01:21:02.403Z,5.90
2022-09-22T01:23:58.520Z,4.82
2022-09-22T01:27:07.661Z,5.50
2022-09-22T01:30:09.755Z,4.22
2022-09-22T01:32:47.588Z,4.40
2022-09-22T01:35:24.429Z,6.18
2022-09-22T01:38:03.670Z,7.88
2022-09-22T01:40:35.636Z,6.18
2022-09-22T01:43:13.351Z,6.32
2022-09-22T01:45:44.539Z,4.47
2022-09-22T01:48:18.869Z,4.35
2022-09-22T01:50:52.451Z,4.85
2022-09-22T01:53:23.808Z,5.63
2022-09-22T01:55:55.183Z,4.05
2022-09-22T01:58:27.613Z,7.63
2022-09-22T02:01:00.521Z,6.78
2022-09-22T02:03:35.213Z,4.78
2022-09-22T02:06:10.041Z,5.15
2022-09-22T02:08:43.865Z,5.75
2022-09-22T02:11:16.222Z,4.90
2022-09-22T02:13:45.584Z,4.78
2022-09-22T02:16:15.609Z,6.82
2022-09-22T02:18:50.728Z,5.00
2022-09-22T02:21:20.302Z,4.07
2022-09-22T02:23:49.810Z,4.43
2022-09-22T02:26:23.842Z,4.00
2022-09-22T02:28:54.300Z,5.93
2022-09-22T02:31:24.601Z,4.55
2022-09-22T02:33:54.227Z,5.45
2022-09-22T02:36:35.413Z,7.07
2022-09-22T02:39:10.056Z,7.30
2022-09-22T02:41:47.419Z,10.23
2022-09-22T02:44:21.121Z,3.95
2022-09-22T02:46:57.396Z,7.13
2022-09-22T02:49:29.009Z,3.08
2022-09-22T02:51:57.189Z,4.18
2022-09-22T02:54:25.059Z,6.28
2022-09-22T02:56:52.963Z,3.47
2022-09-22T02:59:21.128Z,3.33
2022-09-22T03:01:49.907Z,5.57
2022-09-22T03:04:17.838Z,6.20
2022-09-22T03:06:47.108Z,4.28
2022-09-22T03:09:17.526Z,8.75
2022-09-22T03:11:45.916Z,3.53
2022-09-22T03:14:13.782Z,3.50
2022-09-22T03:16:41.628Z,5.82
2022-09-22T03:19:09.496Z,3.95
2022-09-22T03:21:37.356Z,3.38
2022-09-22T03:24:06.946Z,3.83
2022-09-22T03:26:35.471Z,2.83
2022-09-22T03:29:03.299Z,4.82
2022-09-22T03:31:31.132Z,5.05
2022-09-22T03:33:59.153Z,4.00
2022-09-22T03:36:27.015Z,3.78
2022-09-22T03:38:54.857Z,3.53
2022-09-22T03:41:24.167Z,7.25
2022-09-22T03:43:52.036Z,3.35
2022-09-22T03:46:19.996Z,3.35
2022-09-22T03:48:47.962Z,3.17
2022-09-22T03:51:15.884Z,12.38
2022-09-22T03:53:43.760Z,4.45
2022-09-22T03:56:14.891Z,4.68
2022-09-22T03:58:44.965Z,3.42
2022-09-22T04:01:13.201Z,4.10
2022-09-22T04:03:41.126Z,3.67
2022-09-22T04:06:09.359Z,3.95
2022-09-22T04:08:37.369Z,4.30
2022-09-22T04:11:06.755Z,4.28
2022-09-22T04:13:35.383Z,7.07
2022-09-22T04:16:05.231Z,5.55
2022-09-22T04:18:33.691Z,3.38
2022-09-22T04:21:01.515Z,4.40
2022-09-22T04:23:29.406Z,3.50
2022-09-22T04:25:57.260Z,4.55
2022-09-22T04:28:25.088Z,7.97
2022-09-22T04:30:52.933Z,3.65
2022-09-22T04:33:23.070Z,6.50
2022-09-22T04:35:51.233Z,5.22
2022-09-22T04:38:19.791Z,6.45
2022-09-22T04:40:49.611Z,6.35
2022-09-22T04:43:17.456Z,4.00
2022-09-22T04:45:46.239Z,8.15
2022-09-22T04:48:14.097Z,4.82
2022-09-22T04:50:47.814Z,6.18
2022-09-22T04:53:16.489Z,3.55
2022-09-22T04:55:44.302Z,6.75
2022-09-22T04:58:12.163Z,4.90
2022-09-22T05:00:40.020Z,4.80
2022-09-22T05:03:12.234Z,6.47
2022-09-22T05:05:40.534Z,5.25
2022-09-22T05:08:10.234Z,3.80
2022-09-22T05:10:38.124Z,3.50
2022-09-22T05:13:06.732Z,4.15
2022-09-22T05:15:34.849Z,8.63
2022-09-22T05:18:02.942Z,6.13
2022-09-22T05:20:30.958Z,8.32
2022-09-22T05:22:58.810Z,8.20
2022-09-22T05:25:28.198Z,4.75
2022-09-22T05:27:56.724Z,7.53
2022-09-22T05:30:26.247Z,8.27
2022-09-22T05:32:54.384Z,3.97
2022-09-22T05:35:23.805Z,4.80
2022-09-22T05:37:53.394Z,7.70
2022-09-22T05:40:24.040Z,4.78
2022-09-22T05:42:54.713Z,3.97
2022-09-22T05:45:22.708Z,4.53
2022-09-22T05:47:50.760Z,5.05
2022-09-22T05:50:20.053Z,5.93
2022-09-22T05:52:48.213Z,6.72
2022-09-22T05:55:16.064Z,5.57
2022-09-22T05:57:44.389Z,5.05
2022-09-22T06:00:14.433Z,3.85
2022-09-22T06:02:44.666Z,5.72
2022-09-22T06:05:14.077Z,5.90
2022-09-22T06:07:43.789Z,5.70
2022-09-22T06:10:12.732Z,7.88
2022-09-22T06:12:40.967Z,7.10
2022-09-22T06:15:09.315Z,7.15
2022-09-22T06:17:38.561Z,12.52
2022-09-22T06:20:08.514Z,4.30
2022-09-22T06:22:36.406Z,4.80
2022-09-22T06:25:04.441Z,7.13
2022-09-22T06:27:32.267Z,4.45
2022-09-22T06:30:00.103Z,12.07
2022-09-22T06:32:27.956Z,4.97
2022-09-22T06:34:59.781Z,5.97
2022-09-22T06:37:27.650Z,6.22
2022-09-22T06:39:55.477Z,4.53
2022-09-22T06:42:23.335Z,6.47
2022-09-22T06:44:51.422Z,5.75
2022-09-22T06:47:19.236Z,4.60
2022-09-22T06:49:47.273Z,8.30
2022-09-22T06:52:16.502Z,4.45
2022-09-22T06:54:44.402Z,4.95
2022-09-22T06:57:13.134Z,9.02
2022-09-22T06:59:41.300Z,6.18
2022-09-22T07:02:10.851Z,5.82
2022-09-22T07:04:38.760Z,6.10
2022-09-22T07:07:06.637Z,7.72
2022-09-22T07:09:35.871Z,6.47
2022-09-22T07:12:03.686Z,11.82
2022-09-22T07:14:32.656Z,5.10
2022-09-22T07:17:00.887Z,3.47
2022-09-22T07:19:28.812Z,7.65
2022-09-22T07:21:57.476Z,4.57
2022-09-22T07:24:27.821Z,8.75
2022-09-22T07:26:57.040Z,7.80
2022-09-22T07:29:24.964Z,10.18
2022-09-22T07:31:53.404Z,5.07
2022-09-22T07:34:21.286Z,5.03
2022-09-22T07:36:51.455Z,4.45
2022-09-22T07:39:19.396Z,5.88
2022-09-22T07:41:48.089Z,3.00
2022-09-22T07:44:34.910Z,3.80
2022-09-22T07:47:04.988Z,6.30
2022-09-22T07:49:33.597Z,5.82
2022-09-22T07:52:01.477Z,6.55
2022-09-22T07:54:29.378Z,5.10
2022-09-22T07:56:59.262Z,4.25
2022-09-22T07:59:28.644Z,6.85
2022-09-22T08:01:56.606Z,3.03
2022-09-22T08:04:26.694Z,5.75
2022-09-22T08:06:56.365Z,3.28
2022-09-22T08:09:25.787Z,6.18
2022-09-22T08:11:55.073Z,4.35
2022-09-22T08:14:23.881Z,2.60
2022-09-22T08:16:54.232Z,2.40
2022-09-22T08:19:24.355Z,6.07
2022-09-22T08:21:54.137Z,6.78
2022-09-22T08:24:23.797Z,2.28
2022-09-22T08:26:56.022Z,2.78
2022-09-22T08:29:24.815Z,3.28
2022-09-22T08:31:54.474Z,2.63
2022-09-22T08:34:22.970Z,3.40
2022-09-22T08:36:50.817Z,2.47
2022-09-22T08:39:19.464Z,3.05
2022-09-22T08:42:04.202Z,2.60
2022-09-22T08:44:37.441Z,1.98
2022-09-22T08:47:07.047Z,2.10
2022-09-22T08:49:58.397Z,1.88
2022-09-22T08:52:32.419Z,1.23
2022-09-22T08:55:02.422Z,3.55
2022-09-22T08:57:49.559Z,1.95
2022-09-22T09:00:20.081Z,2.05
2022-09-22T09:03:01.763Z,2.17
2022-09-22T09:05:50.838Z,3.33
2022-09-22T09:08:31.000Z,0.82
2022-09-22T09:11:09.078Z,1.80
2022-09-22T09:13:55.122Z,1.92
2022-09-22T09:16:38.355Z,3.85
2022-09-22T09:19:15.820Z,1.35
2022-09-22T09:21:50.597Z,1.40
2022-09-22T09:27:18.195Z,1.25
2022-09-22T09:29:57.003Z,2.95
2022-09-22T09:32:33.170Z,7.20
2022-09-22T09:37:36.898Z,1.98
2022-09-22T09:40:08.918Z,1.55
2022-09-22T09:42:36.950Z,1.98
2022-09-22T09:45:05.758Z,5.30
2022-09-22T09:47:47.730Z,2.75
2022-09-22T09:50:17.314Z,2.15
2022-09-22T09:52:46.072Z,2.80
2022-09-22T09:55:27.205Z,2.25
2022-09-22T09:58:10.886Z,1.10
2022-09-22T10:00:55.113Z,1.35
2022-09-22T10:03:29.944Z,1.25
2022-09-22T10:06:02.897Z,0.95
2022-09-22T10:08:36.490Z,1.85
2022-09-22T10:11:05.627Z,2.50
2022-09-22T10:13:36.714Z,4.57
2022-09-22T10:16:20.889Z,2.63
2022-09-22T10:18:50.195Z,5.15
2022-09-22T10:21:21.496Z,1.65
2022-09-22T10:23:50.868Z,2.63
2022-09-22T10:26:26.308Z,1.92
2022-09-22T10:29:18.177Z,1.58
2022-09-22T10:32:04.764Z,1.17
2022-09-22T10:34:35.482Z,1.48
2022-09-22T10:37:10.412Z,1.48
2022-09-22T10:39:44.648Z,5.45
2022-09-22T10:42:38.167Z,3.60
2022-09-22T10:45:08.484Z,5.72
2022-09-22T10:47:52.414Z,1.67
2022-09-22T10:50:42.988Z,5.25
2022-09-22T10:53:42.571Z,0.80
2022-09-22T10:56:20.950Z,3.80
2022-09-22T10:59:16.777Z,2.30
2022-09-22T11:01:56.366Z,2.88
2022-09-22T11:04:42.634Z,1.30
2022-09-22T11:07:54.317Z,1.40
2022-09-22T11:11:05.247Z,1.77
2022-09-22T11:13:47.138Z,2.75
2022-09-22T11:16:47.108Z,2.53
2022-09-22T11:19:48.515Z,2.65
2022-09-22T11:22:34.912Z,1.55
2022-09-22T11:25:24.719Z,2.85
2022-09-22T11:28:13.507Z,2.03
2022-09-22T11:30:47.231Z,2.45
2022-09-22T11:33:40.466Z,3.90
2022-09-22T11:36:27.091Z,6.40
2022-09-22T11:39:20.495Z,3.65
2022-09-22T11:41:56.475Z,1.10
2022-09-22T11:44:37.351Z,7.85
2022-09-22T11:47:26.438Z,1.48
2022-09-22T11:50:27.869Z,1.90
2022-09-22T11:53:21.263Z,1.10
2022-09-22T11:56:03.055Z,1.15
2022-09-22T11:58:34.248Z,4.88
2022-09-22T12:01:12.975Z,5.25
2022-09-22T12:03:47.474Z,2.35
2022-09-22T12:06:18.783Z,3.33
2022-09-22T12:11:29.073Z,2.15
2022-09-22T12:13:58.920Z,2.00
2022-09-22T12:16:41.795Z,1.10
2022-09-22T12:19:18.112Z,0.43
2022-09-22T12:21:52.712Z,0.82
2022-09-22T12:24:21.047Z,1.48
2022-09-22T12:26:50.883Z,1.48
2022-09-22T12:29:27.468Z,1.75
2022-09-22T12:31:59.067Z,0.80
2022-09-22T12:34:29.369Z,1.15
2022-09-22T12:37:00.248Z,3.90
2022-09-22T12:39:30.944Z,1.08
2022-09-22T12:42:01.247Z,1.98
2022-09-22T12:44:32.504Z,3.13
2022-09-22T12:47:06.600Z,1.70
2022-09-22T12:49:35.270Z,2.67
2022-09-22T12:52:03.371Z,0.93
2022-09-22T12:54:40.108Z,2.97
2022-09-22T12:57:27.377Z,1.35
2022-09-22T13:00:20.576Z,2.47
2022-09-22T13:02:51.072Z,1.88
2022-09-22T13:05:36.491Z,1.55
2022-09-22T13:08:04.748Z,2.17
2022-09-22T13:10:42.227Z,2.33
2022-09-22T13:13:23.882Z,3.85
2022-09-22T13:15:59.353Z,3.17
2022-09-22T13:18:34.860Z,2.10
2022-09-22T13:21:04.573Z,3.63
2022-09-22T13:23:32.479Z,0.90
2022-09-22T13:26:08.047Z,1.48
2022-09-22T13:28:36.036Z,2.70
2022-09-22T13:31:06.412Z,1.17
2022-09-22T13:33:37.606Z,0.82
2022-09-22T13:36:08.863Z,1.55
2022-09-22T13:38:39.255Z,3.55
2022-09-22T13:41:12.594Z,0.90
2022-09-22T13:46:20.110Z,2.03
2022-09-22T13:48:51.163Z,4.60
2022-09-22T13:51:19.098Z,8.90
2022-09-22T13:53:52.417Z,28.38
2022-09-22T13:58:52.769Z,11.70
2022-09-22T14:01:22.568Z,2.53
2022-09-22T14:03:53.343Z,5.40
2022-09-22T14:06:23.941Z,5.65
2022-09-22T14:08:55.036Z,3.58
2022-09-22T14:11:25.909Z,6.20
2022-09-22T14:14:01.809Z,0.70
2022-09-22T14:16:35.206Z,2.50
2022-09-22T14:19:08.854Z,3.42
2022-09-22T14:21:45.577Z,2.72
2022-09-22T14:24:15.329Z,2.35
2022-09-22T14:26:48.676Z,2.40
2022-09-22T14:31:52.158Z,2.28
2022-09-22T14:34:26.605Z,2.22
2022-09-22T14:36:56.341Z,1.98
2022-09-22T14:39:31.873Z,1.42
2022-09-22T14:42:10.374Z,0.70
2022-09-22T14:44:43.726Z,4.15
2022-09-22T14:49:50.098Z,0.90
2022-09-22T14:52:28.480Z,3.08
2022-09-22T14:54:59.486Z,1.50
2022-09-22T14:57:28.047Z,2.33
2022-09-22T15:00:16.384Z,1.33
2022-09-22T15:02:51.045Z,4.70
2022-09-22T15:05:30.173Z,7.05
2022-09-22T15:07:59.482Z,1.67
2022-09-22T15:10:30.360Z,4.18
2022-09-22T15:13:19.668Z,0.95
2022-09-22T15:15:50.623Z,1.08
2022-09-22T15:18:19.543Z,1.48
2022-09-22T15:20:51.647Z,0.93
2022-09-22T15:23:24.085Z,0.93
2022-09-22T15:25:53.413Z,1.30
2022-09-22T15:28:23.926Z,1.35
2022-09-22T15:30:58.346Z,1.92
2022-09-22T15:33:27.739Z,2.03
2022-09-22T15:36:03.158Z,1.45
2022-09-22T15:38:32.766Z,1.85
2022-09-22T15:41:01.182Z,3.88
2022-09-22T15:43:30.987Z,0.77
2022-09-22T15:46:03.622Z,2.65
2022-09-22T15:48:33.894Z,2.65
2022-09-22T15:51:05.529Z,1.90
2022-09-22T15:53:34.069Z,2.92
2022-09-22T15:56:04.915Z,2.85
2022-09-22T15:58:36.234Z,1.30
2022-09-22T16:01:05.622Z,1.92
2022-09-22T16:03:38.956Z,1.20
2022-09-22T16:06:14.093Z,2.33
2022-09-22T16:08:44.418Z,0.80
2022-09-22T16:11:14.612Z,2.45
2022-09-22T16:13:43.165Z,2.13
2022-09-22T16:16:12.623Z,1.13
2022-09-22T16:18:41.844Z,3.13
2022-09-22T16:21:26.034Z,3.88
2022-09-22T16:23:54.767Z,1.50
2022-09-22T16:26:22.659Z,1.48
2022-09-22T16:28:50.564Z,1.38
2022-09-22T16:31:19.102Z,1.58
2022-09-22T16:33:51.163Z,4.43
2022-09-22T16:36:20.408Z,2.30
2022-09-22T16:38:48.292Z,1.35
2022-09-22T16:41:20.805Z,1.45
2022-09-22T16:43:48.772Z,1.23
2022-09-22T16:46:30.012Z,2.10
2022-09-22T16:49:00.431Z,3.35
2022-09-22T16:51:30.522Z,1.95
2022-09-22T16:53:58.602Z,2.75
2022-09-22T16:56:28.432Z,2.10
2022-09-22T16:58:56.685Z,0.98
2022-09-22T17:01:25.087Z,3.03
2022-09-22T17:03:53.770Z,1.75
2022-09-22T17:06:25.134Z,2.95
2022-09-22T17:08:57.067Z,3.58
2022-09-22T17:11:29.619Z,2.00
2022-09-22T17:14:01.359Z,3.63
2022-09-22T17:16:30.840Z,5.57
2022-09-22T17:19:02.964Z,3.13
2022-09-22T17:21:34.454Z,4.43
2022-09-22T17:24:05.716Z,2.85
2022-09-22T17:26:35.547Z,3.55
2022-09-22T17:29:03.521Z,2.08
2022-09-22T17:31:32.177Z,2.67
2022-09-22T17:34:00.127Z,4.75
2022-09-22T17:36:29.886Z,3.35
2022-09-22T17:38:59.491Z,3.35
2022-09-22T17:41:31.370Z,3.58
2022-09-22T17:44:01.337Z,3.38
2022-09-22T17:46:31.027Z,3.83
2022-09-22T17:49:16.451Z,10.63
2022-09-22T17:52:08.608Z,5.18
2022-09-22T17:54:56.701Z,5.57
2022-09-22T17:57:28.168Z,7.28
2022-09-22T17:59:57.035Z,5.32
2022-09-22T18:02:27.298Z,4.22
2022-09-22T18:04:55.758Z,4.15
2022-09-22T18:07:25.284Z,5.43
2022-09-22T18:09:55.434Z,6.20
2022-09-22T18:12:25.589Z,5.72
2022-09-22T18:14:55.694Z,5.00
2022-09-22T18:17:26.268Z,4.30
2022-09-22T18:19:55.566Z,8.25
2022-09-22T18:22:24.733Z,7.25
2022-09-22T18:24:55.512Z,8.10
2022-09-22T18:27:26.921Z,8.30
2022-09-22T18:29:58.523Z,4.40
2022-09-22T18:32:27.101Z,4.20
2022-09-22T18:34:55.362Z,10.85
2022-09-22T18:37:24.624Z,4.55
2022-09-22T18:39:52.513Z,5.50
2022-09-22T18:42:22.704Z,4.85
2022-09-22T18:44:52.245Z,6.32
2022-09-22T18:47:23.044Z,9.15
2022-09-22T18:49:51.711Z,6.00
2022-09-22T18:52:22.969Z,5.07
2022-09-22T18:54:53.066Z,5.00
2022-09-22T18:57:21.682Z,6.60
2022-09-22T18:59:51.148Z,7.78
2022-09-22T19:02:22.874Z,6.10
2022-09-22T19:04:52.224Z,8.25
2022-09-22T19:07:42.416Z,8.23
2022-09-22T19:10:11.691Z,5.80
2022-09-22T19:12:40.372Z,5.32
2022-09-22T19:15:14.985Z,12.02
2022-09-22T19:17:44.678Z,6.03
2022-09-22T19:20:15.723Z,7.38
2022-09-22T19:22:43.982Z,7.35
2022-09-22T19:25:12.160Z,7.15
2022-09-22T19:27:40.796Z,8.88
2022-09-22T19:30:11.959Z,6.95
2022-09-22T19:32:40.974Z,8.70
2022-09-22T19:35:09.896Z,7.28
2022-09-22T19:37:37.815Z,7.05
2022-09-22T19:40:07.916Z,6.68
2022-09-22T19:42:40.363Z,8.07
2022-09-22T19:45:10.651Z,11.13
2022-09-22T19:47:39.506Z,10.15
2022-09-22T19:50:08.781Z,11.13
2022-09-22T19:52:38.309Z,9.13
2022-09-22T19:55:07.284Z,9.70
2022-09-22T19:57:41.177Z,8.55
2022-09-22T20:00:13.088Z,10.13
2022-09-22T20:02:41.216Z,8.63
2022-09-22T20:05:19.056Z,13.77
2022-09-22T20:07:46.917Z,10.07
2022-09-22T20:10:15.172Z,8.40
2022-09-22T20:12:43.037Z,9.30
2022-09-22T20:15:15.514Z,12.40
2022-09-22T20:17:46.285Z,13.77
2022-09-22T20:20:15.427Z,9.23
2022-09-22T20:22:43.465Z,12.55
2022-09-22T20:25:22.279Z,11.57
2022-09-22T20:27:50.252Z,12.27
2022-09-22T20:30:19.743Z,9.75
2022-09-22T20:32:47.844Z,9.27
2022-09-22T20:35:18.030Z,14.25
2022-09-22T20:37:48.953Z,11.88
2022-09-22T20:40:23.065Z,12.77
2022-09-22T20:42:54.184Z,13.48
2022-09-22T20:45:24.909Z,10.77
2022-09-22T20:47:52.752Z,12.10
2022-09-22T20:50:21.204Z,14.65
2022-09-22T20:52:49.179Z,10.25
2022-09-22T20:55:17.561Z,12.55
2022-09-22T20:57:45.478Z,11.27
2022-09-22T21:00:15.271Z,12.60
2022-09-22T21:02:44.686Z,13.68
2022-09-22T21:05:12.745Z,13.20
2022-09-22T21:07:40.568Z,13.93
2022-09-22T21:10:26.330Z,15.23
2022-09-22T21:12:55.973Z,15.98
2022-09-22T21:15:24.197Z,13.25
2022-09-22T21:17:53.578Z,13.73
2022-09-22T21:20:21.606Z,16.95
2022-09-22T21:22:49.544Z,15.07
2022-09-22T21:25:17.646Z,13.55
2022-09-22T21:27:47.066Z,14.38
2022-09-22T21:30:15.148Z,13.43
2022-09-22T21:32:42.968Z,14.82
2022-09-22T21:35:16.491Z,13.80
2022-09-22T21:37:44.646Z,12.95
2022-09-22T21:40:12.647Z,12.63
2022-09-22T21:42:40.557Z,16.63
2022-09-22T21:45:09.416Z,15.65
2022-09-22T21:47:37.229Z,12.68
2022-09-22T21:50:05.805Z,17.17
2022-09-22T21:52:36.983Z,15.45
2022-09-22T21:55:05.523Z,18.40
2022-09-22T21:57:33.343Z,18.25
2022-09-22T22:00:01.263Z,14.88
2022-09-22T22:02:49.082Z,14.60
2022-09-22T22:05:16.973Z,14.25
2022-09-22T22:07:46.158Z,11.70
2022-09-22T22:10:15.550Z,13.27
2022-09-22T22:12:44.949Z,14.82
2022-09-22T22:15:14.966Z,12.63
2022-09-22T22:17:42.819Z,15.73
2022-09-22T22:20:10.877Z,15.90
2022-09-22T22:22:38.687Z,16.33
2022-09-22T22:25:12.838Z,13.35
2022-09-22T22:27:41.042Z,14.85
2022-09-22T22:30:10.416Z,11.18
2022-09-22T22:32:38.315Z,16.35
2022-09-22T22:35:07.284Z,11.52
2022-09-22T22:37:35.116Z,14.85
2022-09-22T22:40:03.224Z,16.60
2022-09-22T22:42:32.494Z,13.38
2022-09-22T22:45:00.342Z,11.60
2022-09-22T22:47:28.187Z,13.70
2022-09-22T22:49:56.010Z,12.05
2022-09-22T22:52:23.869Z,15.40
2022-09-22T22:54:52.638Z,14.82
2022-09-22T22:57:20.478Z,12.88
2022-09-22T22:59:49.709Z,14.43
2022-09-22T23:02:17.570Z,14.65
2022-09-22T23:04:45.370Z,12.88
2022-09-22T23:07:13.295Z,14.88
2022-09-22T23:09:41.131Z,16.15
2022-09-22T23:12:10.601Z,13.68
2022-09-22T23:14:38.478Z,12.50
2022-09-22T23:17:07.733Z,12.93
2022-09-22T23:19:35.990Z,18.02
2022-09-22T23:22:04.773Z,11.05
2022-09-22T23:24:32.718Z,11.63
2022-09-22T23:27:00.532Z,17.52
2022-09-22T23:29:28.371Z,13.18
2022-09-22T23:31:56.415Z,13.48
2022-09-22T23:34:25.660Z,16.13
2022-09-22T23:36:53.667Z,10.48
2022-09-22T23:39:21.764Z,12.30
2022-09-22T23:41:51.291Z,16.08
2022-09-22T23:44:19.261Z,14.18
2022-09-22T23:46:47.081Z,17.10
2022-09-22T23:49:14.964Z,12.00
2022-09-22T23:51:44.661Z,13.07
2022-09-22T23:54:14.059Z,12.73
2022-09-22T23:56:41.916Z,13.45
2022-09-22T23:59:09.815Z,12.75
